createdAt,value
2022-09-07T00:01:25.712Z,99829.38
2022-09-07T00:03:56.772Z,99815.28
2022-09-07T00:06:26.284Z,99796.91
2022-09-07T00:08:54.931Z,99783.63
2022-09-07T00:11:23.630Z,99785.72
2022-09-07T00:13:51.940Z,99792.13
2022-09-07T00:16:26.331Z,99796.91
2022-09-07T00:18:55.832Z,99791.03
2022-09-07T00:21:25.198Z,99795.34
2022-09-07T00:26:23.530Z,99802.09
2022-09-07T00:28:53.069Z,99799.66
2022-09-07T00:31:25.184Z,99804.94
2022-09-07T00:36:21.258Z,99801.31
2022-09-07T00:38:49.929Z,99807.81
2022-09-07T00:41:20.403Z,99804.75
2022-09-07T00:43:51.854Z,99783.38
2022-09-07T00:46:22.376Z,99784.63
2022-09-07T00:49:00.627Z,99788.47
2022-09-07T00:51:36.855Z,99776.47
2022-09-07T00:54:09.899Z,99773.03
2022-09-07T00:56:43.145Z,99780.09
2022-09-07T00:59:14.944Z,99784.19
2022-09-07T01:01:43.756Z,99767.88
2022-09-07T01:04:14.317Z,99774.41
2022-09-07T01:06:44.357Z,99781.13
2022-09-07T01:12:08.689Z,99782.56
2022-09-07T01:14:43.151Z,99782.16
2022-09-07T01:17:18.565Z,99779.50
2022-09-07T01:24:39.350Z,99776.88
2022-09-07T01:27:57.962Z,99778.06
2022-09-07T01:30:26.744Z,99771.31
2022-09-07T01:33:12.268Z,99764.63
2022-09-07T01:35:48.005Z,99767.84
2022-09-07T01:38:23.639Z,99756.00
2022-09-07T01:40:59.475Z,99757.38
2022-09-07T01:43:38.928Z,99755.44
2022-09-07T01:46:19.236Z,99753.22
2022-09-07T01:48:52.982Z,99754.81
2022-09-07T01:51:28.573Z,99745.03
2022-09-07T01:54:00.890Z,99733.88
2022-09-07T01:56:36.132Z,99727.16
2022-09-07T01:59:10.297Z,99723.25
2022-09-07T02:01:45.782Z,99708.06
2022-09-07T02:04:20.502Z,99724.78
2022-09-07T02:06:54.200Z,99728.84
2022-09-07T02:09:28.918Z,99734.13
2022-09-07T02:11:58.463Z,99732.50
2022-09-07T02:14:33.398Z,99723.53
2022-09-07T02:17:12.256Z,99717.06
2022-09-07T02:19:48.828Z,99720.28
2022-09-07T02:22:24.687Z,99721.72
2022-09-07T02:24:57.384Z,99734.13
2022-09-07T02:27:35.015Z,99726.97
2022-09-07T02:30:06.089Z,99734.13
2022-09-07T02:32:34.587Z,99740.41
2022-09-07T02:35:03.407Z,99730.84
2022-09-07T02:37:32.418Z,99726.56
2022-09-07T02:40:01.502Z,99734.28
2022-09-07T02:42:33.054Z,99743.25
2022-09-07T02:45:03.994Z,99745.09
2022-09-07T02:47:49.041Z,99739.59
2022-09-07T02:50:40.973Z,99745.50
2022-09-07T02:53:36.679Z,99732.88
2022-09-07T02:56:19.423Z,99724.38
2022-09-07T02:58:57.707Z,99720.47
2022-09-07T03:01:40.666Z,99726.97
2022-09-07T03:04:19.734Z,99727.56
2022-09-07T03:06:58.978Z,99715.78
2022-09-07T03:09:33.602Z,99714.16
2022-09-07T03:12:04.396Z,99703.19
2022-09-07T03:14:34.319Z,99705.41
2022-09-07T03:17:03.275Z,99705.22
2022-09-07T03:19:33.249Z,99705.44
2022-09-07T03:22:01.795Z,99700.97
2022-09-07T03:24:30.352Z,99704.13
2022-09-07T03:26:59.246Z,99707.50
2022-09-07T03:29:27.877Z,99718.03
2022-09-07T03:31:56.219Z,99730.56
2022-09-07T03:34:24.746Z,99721.91
2022-09-07T03:36:54.650Z,99726.78
2022-09-07T03:39:24.262Z,99726.69
2022-09-07T03:41:52.782Z,99714.09
2022-09-07T03:44:21.298Z,99713.81
2022-09-07T03:46:57.228Z,99706.72
2022-09-07T03:49:25.806Z,99697.34
2022-09-07T03:51:55.547Z,99705.88
2022-09-07T03:54:23.906Z,99708.53
2022-09-07T03:56:55.389Z,99705.94
2022-09-07T04:07:04.683Z,99703.22
2022-09-07T04:09:40.774Z,99694.50
2022-09-07T04:14:52.020Z,99693.28
2022-09-07T04:17:20.436Z,99698.94
2022-09-07T04:19:48.967Z,99700.56
2022-09-07T04:22:17.354Z,99696.88
2022-09-07T04:24:45.765Z,99692.06
2022-09-07T04:27:14.411Z,99694.66
2022-09-07T04:29:42.809Z,99699.53
2022-09-07T04:32:15.853Z,99685.16
2022-09-07T04:34:44.683Z,99684.66
2022-09-07T04:37:13.661Z,99697.13
2022-09-07T04:39:42.109Z,99680.81
2022-09-07T04:42:11.072Z,99686.50
2022-09-07T04:44:39.386Z,99690.00
2022-09-07T04:47:08.649Z,99689.22
2022-09-07T04:49:38.913Z,99692.03
2022-09-07T04:52:07.386Z,99688.16
2022-09-07T04:54:35.721Z,99685.91
2022-09-07T04:57:04.355Z,99682.59
2022-09-07T04:59:32.679Z,99679.59
2022-09-07T05:02:01.087Z,99677.59
2022-09-07T05:04:29.639Z,99673.06
2022-09-07T05:06:59.485Z,99664.66
2022-09-07T05:09:27.953Z,99663.72
2022-09-07T05:11:56.364Z,99661.34
2022-09-07T05:14:24.728Z,99670.28
2022-09-07T05:16:53.074Z,99680.22
2022-09-07T05:19:21.637Z,99673.00
2022-09-07T05:21:49.986Z,99675.50
2022-09-07T05:24:19.854Z,99677.97
2022-09-07T05:26:48.249Z,99673.66
2022-09-07T05:32:05.884Z,99682.44
2022-09-07T05:34:34.286Z,99691.16
2022-09-07T05:37:04.271Z,99690.00
2022-09-07T05:39:34.028Z,99680.34
2022-09-07T05:42:02.879Z,99680.78
2022-09-07T05:44:47.151Z,99688.91
2022-09-07T05:47:16.331Z,99689.34
2022-09-07T05:49:44.702Z,99684.28
2022-09-07T05:52:13.235Z,99683.06
2022-09-07T05:54:43.035Z,99690.59
2022-09-07T05:57:13.533Z,99671.66
2022-09-07T05:59:42.215Z,99684.28
2022-09-07T06:02:14.598Z,99687.28
2022-09-07T06:04:43.277Z,99688.31
2022-09-07T06:07:22.531Z,99687.50
2022-09-07T06:12:48.951Z,99700.06
2022-09-07T06:15:18.244Z,99706.81
2022-09-07T06:17:46.588Z,99705.53
2022-09-07T06:20:14.936Z,99699.66
2022-09-07T06:22:45.616Z,99696.81
2022-09-07T06:25:15.465Z,99705.88
2022-09-07T06:27:44.188Z,99713.88
2022-09-07T06:30:13.440Z,99709.66
2022-09-07T06:35:15.735Z,99735.66
2022-09-07T06:37:44.684Z,99733.22
2022-09-07T06:40:14.935Z,99738.69
2022-09-07T06:42:43.611Z,99727.97
2022-09-07T06:45:13.144Z,99737.75
2022-09-07T06:47:41.839Z,99744.03
2022-09-07T06:50:13.096Z,99744.88
2022-09-07T06:55:32.905Z,99755.66
2022-09-07T06:58:01.359Z,99753.38
2022-09-07T07:00:29.800Z,99747.47
2022-09-07T07:02:58.295Z,99739.72
2022-09-07T07:05:26.656Z,99739.09
2022-09-07T07:07:56.294Z,99745.00
2022-09-07T07:10:26.736Z,99781.84
2022-09-07T07:12:58.484Z,99776.31
2022-09-07T07:15:29.513Z,99773.88
2022-09-07T07:18:06.014Z,99775.72
2022-09-07T07:20:47.061Z,99762.25
2022-09-07T07:23:15.442Z,99773.44
2022-09-07T07:25:44.216Z,99786.91
2022-09-07T07:31:09.882Z,99788.84
2022-09-07T07:33:40.571Z,99791.81
2022-09-07T07:36:12.551Z,99790.44
2022-09-07T07:38:59.295Z,99794.34
2022-09-07T07:44:21.698Z,99795.56
2022-09-07T07:46:50.988Z,99793.16
2022-09-07T07:49:19.958Z,99783.16
2022-09-07T07:54:37.764Z,99780.56
2022-09-07T07:57:07.828Z,99780.56
2022-09-07T07:59:37.621Z,99778.50
2022-09-07T08:02:09.835Z,99777.28
2022-09-07T08:04:38.299Z,99772.34
2022-09-07T08:07:10.479Z,99775.53
2022-09-07T08:09:41.465Z,99764.69
2022-09-07T08:12:12.222Z,99762.19
2022-09-07T08:14:42.687Z,99761.88
2022-09-07T08:17:13.497Z,99762.06
2022-09-07T08:19:42.166Z,99764.94
2022-09-07T08:22:11.672Z,99758.88
2022-09-07T08:24:40.287Z,99754.25
2022-09-07T08:27:09.128Z,99766.66
2022-09-07T08:29:37.335Z,99757.13
2022-09-07T08:32:07.862Z,99761.03
2022-09-07T08:34:41.673Z,99753.75
2022-09-07T08:37:10.101Z,99748.03
2022-09-07T08:39:38.589Z,99740.19
2022-09-07T08:42:42.315Z,99754.56
2022-09-07T08:45:15.780Z,99764.19
2022-09-07T08:47:50.816Z,99764.38
2022-09-07T08:50:24.009Z,99758.97
2022-09-07T08:52:57.239Z,99748.44
2022-09-07T08:55:31.242Z,99748.69
2022-09-07T08:58:18.068Z,99758.25
2022-09-07T09:01:30.558Z,99763.75
2022-09-07T09:06:59.018Z,99772.41
2022-09-07T09:09:39.587Z,99766.16
2022-09-07T09:12:22.576Z,99777.78
2022-09-07T09:15:08.366Z,99772.81
2022-09-07T09:17:45.341Z,99779.97
2022-09-07T09:20:25.394Z,99785.28
2022-09-07T09:23:01.720Z,99776.09
2022-09-07T09:25:34.557Z,99791.56
2022-09-07T09:28:03.678Z,99797.16
2022-09-07T09:30:31.977Z,99798.00
2022-09-07T09:33:19.109Z,99802.78
2022-09-07T09:35:50.931Z,99798.44
2022-09-07T09:38:35.346Z,99790.22
2022-09-07T09:41:09.568Z,99797.59
2022-09-07T09:43:45.675Z,99788.66
2022-09-07T09:46:26.835Z,99785.72
2022-09-07T09:48:59.022Z,99780.97
2022-09-07T09:54:27.824Z,99784.56
2022-09-07T09:56:56.793Z,99779.81
2022-09-07T10:05:28.534Z,99769.31
2022-09-07T10:07:58.342Z,99768.72
2022-09-07T10:10:28.815Z,99773.00
2022-09-07T10:12:57.987Z,99775.25
2022-09-07T10:15:39.957Z,99777.25
2022-09-07T10:18:19.399Z,99767.34
2022-09-07T10:20:47.681Z,99775.06
2022-09-07T10:23:25.242Z,99766.50
2022-09-07T10:25:53.493Z,99764.41
2022-09-07T10:28:24.699Z,99763.25
2022-09-07T10:31:14.686Z,99766.81
2022-09-07T10:36:48.553Z,99763.44
2022-09-07T10:39:26.162Z,99768.56
2022-09-07T10:42:02.400Z,99764.38
2022-09-07T10:44:54.706Z,99759.19
2022-09-07T10:47:35.746Z,99764.69
2022-09-07T10:50:24.911Z,99754.94
2022-09-07T10:53:36.983Z,99749.72
2022-09-07T10:56:08.727Z,99745.06
2022-09-07T10:59:03.405Z,99741.47
2022-09-07T11:01:50.061Z,99731.47
2022-09-07T11:04:44.254Z,99732.63
2022-09-07T11:07:37.111Z,99734.31
2022-09-07T11:10:21.074Z,99719.34
2022-09-07T11:12:53.137Z,99719.31
2022-09-07T11:15:28.537Z,99721.47
2022-09-07T11:18:00.850Z,99719.03
2022-09-07T11:20:35.432Z,99734.41
2022-09-07T11:23:14.431Z,99721.53
2022-09-07T11:25:48.347Z,99724.25
2022-09-07T11:28:24.066Z,99731.19
2022-09-07T11:31:00.242Z,99721.88
2022-09-07T11:33:35.367Z,99727.66
2022-09-07T11:36:12.489Z,99730.88
2022-09-07T11:38:47.039Z,99734.44
2022-09-07T11:41:28.863Z,99727.06
2022-09-07T11:44:10.095Z,99727.22
2022-09-07T11:46:44.585Z,99713.00
2022-09-07T11:49:20.204Z,99707.97
2022-09-07T11:51:54.416Z,99710.75
2022-09-07T11:54:46.940Z,99709.66
2022-09-07T11:57:43.965Z,99702.25
2022-09-07T12:00:21.121Z,99700.09
2022-09-07T12:03:34.640Z,99699.22
2022-09-07T12:06:40.964Z,99702.53
2022-09-07T12:09:31.716Z,99697.09
2022-09-07T12:12:21.776Z,99693.63
2022-09-07T12:15:06.768Z,99694.13
2022-09-07T12:18:02.368Z,99688.66
2022-09-07T12:20:41.409Z,99681.28
2022-09-07T12:23:27.064Z,99677.44
2022-09-07T12:26:50.742Z,99678.22
2022-09-07T12:29:27.497Z,99671.31
2022-09-07T12:31:59.588Z,99675.47
2022-09-07T12:34:52.410Z,99672.41
2022-09-07T12:37:54.588Z,99679.50
2022-09-07T12:40:47.382Z,99663.19
2022-09-07T12:43:47.762Z,99668.31
2022-09-07T12:46:36.986Z,99671.47
2022-09-07T12:49:17.428Z,99665.63
2022-09-07T12:52:03.494Z,99663.16
2022-09-07T12:54:44.988Z,99653.41
2022-09-07T12:57:32.239Z,99662.03
2022-09-07T13:00:15.993Z,99649.28
2022-09-07T13:03:52.186Z,99648.59
2022-09-07T13:09:38.474Z,99626.38
2022-09-07T13:15:37.880Z,99618.72
2022-09-07T13:18:07.581Z,99621.13
2022-09-07T13:20:39.890Z,99609.91
2022-09-07T13:23:27.537Z,99619.84
2022-09-07T13:26:01.412Z,99618.06
2022-09-07T13:28:56.756Z,99613.09
2022-09-07T13:31:50.009Z,99622.28
2022-09-07T13:34:49.134Z,99608.44
2022-09-07T13:37:21.484Z,99611.63
2022-09-07T13:39:53.638Z,99607.94
2022-09-07T13:42:27.296Z,99605.09
2022-09-07T13:44:58.641Z,99603.84
2022-09-07T13:47:51.831Z,99605.63
2022-09-07T13:50:36.245Z,99606.50
2022-09-07T13:53:31.456Z,99599.47
2022-09-07T13:56:17.459Z,99594.56
2022-09-07T13:58:50.832Z,99592.31
2022-09-07T14:01:22.598Z,99595.00
2022-09-07T14:03:54.145Z,99602.00
2022-09-07T14:06:32.898Z,99604.94
2022-09-07T14:09:04.936Z,99605.75
2022-09-07T14:11:41.129Z,99596.09
2022-09-07T14:14:20.970Z,99594.03
2022-09-07T14:16:55.382Z,99588.34
2022-09-07T14:19:26.929Z,99589.84
2022-09-07T14:22:01.456Z,99594.34
2022-09-07T14:24:36.887Z,99595.72
2022-09-07T14:27:07.108Z,99594.34
2022-09-07T14:29:37.756Z,99593.81
2022-09-07T14:32:11.812Z,99588.22
2022-09-07T14:34:40.553Z,99587.44
2022-09-07T14:37:14.162Z,99581.81
2022-09-07T14:39:46.805Z,99582.47
2022-09-07T14:42:20.136Z,99578.50
2022-09-07T14:44:50.175Z,99579.88
2022-09-07T14:47:29.141Z,99567.91
2022-09-07T14:50:05.588Z,99571.41
2022-09-07T14:52:42.314Z,99574.59
2022-09-07T14:55:29.860Z,99568.34
2022-09-07T14:58:23.274Z,99561.78
2022-09-07T15:03:58.663Z,99560.25
2022-09-07T15:09:30.958Z,99551.16
2022-09-07T15:12:24.898Z,99552.06
2022-09-07T15:15:12.798Z,99557.72
2022-09-07T15:17:42.963Z,99556.56
2022-09-07T15:20:36.961Z,99557.41
2022-09-07T15:23:07.731Z,99563.91
2022-09-07T15:25:36.719Z,99557.31
2022-09-07T15:28:06.054Z,99552.94
2022-09-07T15:30:35.309Z,99553.16
2022-09-07T15:33:06.745Z,99557.38
2022-09-07T15:35:36.763Z,99545.25
2022-09-07T15:38:06.022Z,99552.53
2022-09-07T15:41:20.744Z,99546.50
2022-09-07T15:43:47.618Z,99550.22
2022-09-07T15:46:16.418Z,99549.97
2022-09-07T15:48:52.050Z,99549.63
2022-09-07T15:54:13.100Z,99546.13
2022-09-07T15:56:43.664Z,99549.94
2022-09-07T15:59:13.085Z,99547.69
2022-09-07T16:01:58.172Z,99543.88
2022-09-07T16:04:28.390Z,99550.19
2022-09-07T16:07:01.655Z,99546.03
2022-09-07T16:09:30.069Z,99538.81
2022-09-07T16:13:00.144Z,99541.22
2022-09-07T16:14:46.588Z,99537.25
2022-09-07T16:20:06.815Z,99529.63
2022-09-07T16:25:25.726Z,99536.28
2022-09-07T16:27:54.055Z,99528.72
2022-09-07T16:30:22.810Z,99532.84
2022-09-07T16:32:51.940Z,99528.00
2022-09-07T16:35:21.835Z,99523.84
2022-09-07T16:40:42.920Z,99523.38
2022-09-07T16:43:11.143Z,99528.84
2022-09-07T16:48:28.013Z,99525.84
2022-09-07T16:51:01.969Z,99527.66
2022-09-07T16:53:34.492Z,99530.16
2022-09-07T16:56:03.260Z,99525.19
2022-09-07T16:58:37.008Z,99532.38
2022-09-07T17:01:09.244Z,99521.00
2022-09-07T17:03:38.569Z,99514.56
2022-09-07T17:06:11.513Z,99509.31
2022-09-07T17:08:41.102Z,99506.28
2022-09-07T17:11:11.984Z,99495.41
2022-09-07T17:13:42.083Z,99502.22
2022-09-07T17:16:13.164Z,99488.47
2022-09-07T17:21:35.480Z,99492.28
2022-09-07T17:24:06.469Z,99486.81
2022-09-07T17:26:35.765Z,99480.22
2022-09-07T17:29:04.259Z,99488.69
2022-09-07T17:34:24.295Z,99499.94
2022-09-07T17:36:54.180Z,99510.03
2022-09-07T17:39:22.747Z,99505.94
2022-09-07T17:41:53.255Z,99512.03
2022-09-07T17:44:23.160Z,99506.53
2022-09-07T17:46:52.088Z,99513.00
2022-09-07T17:49:20.478Z,99507.31
2022-09-07T17:51:48.656Z,99509.38
2022-09-07T17:54:19.093Z,99509.97
2022-09-07T17:56:47.701Z,99499.22
2022-09-07T18:02:06.692Z,99496.84
2022-09-07T18:04:36.563Z,99496.38
2022-09-07T18:07:05.747Z,99498.03
2022-09-07T18:09:35.691Z,99495.69
2022-09-07T18:12:04.823Z,99501.16
2022-09-07T18:14:33.250Z,99500.75
2022-09-07T18:17:01.694Z,99496.03
2022-09-07T18:19:30.438Z,99495.16
2022-09-07T18:21:59.354Z,99496.53
2022-09-07T18:24:28.144Z,99499.47
2022-09-07T18:26:57.783Z,99496.47
2022-09-07T18:29:30.090Z,99499.38
2022-09-07T18:32:00.879Z,99495.19
2022-09-07T18:34:30.693Z,99496.19
2022-09-07T18:37:02.507Z,99506.03
2022-09-07T18:39:31.425Z,99498.16
2022-09-07T18:42:02.693Z,99508.03
2022-09-07T18:47:27.919Z,99509.88
2022-09-07T18:49:57.981Z,99508.78
2022-09-07T18:55:15.583Z,99512.72
2022-09-07T18:57:45.226Z,99503.38
2022-09-07T19:00:14.817Z,99503.41
2022-09-07T19:02:47.491Z,99500.50
2022-09-07T19:08:05.171Z,99482.69
2022-09-07T19:10:38.121Z,99488.34
2022-09-07T19:13:07.827Z,99481.41
2022-09-07T19:15:38.369Z,99486.00
2022-09-07T19:18:08.684Z,99489.47
2022-09-07T19:20:37.553Z,99485.59
2022-09-07T19:23:06.753Z,99491.69
2022-09-07T19:25:35.102Z,99496.88
2022-09-07T19:28:03.722Z,99485.88
2022-09-07T19:30:36.314Z,99491.34
2022-09-07T19:33:09.800Z,99499.75
2022-09-07T19:35:40.546Z,99488.91
2022-09-07T19:38:09.116Z,99491.19
2022-09-07T19:40:40.269Z,99484.63
2022-09-07T19:43:11.975Z,99486.28
2022-09-07T19:45:47.100Z,99488.69
2022-09-07T19:48:15.368Z,99489.41
2022-09-07T19:50:47.039Z,99483.66
2022-09-07T19:53:15.570Z,99478.06
2022-09-07T19:55:45.212Z,99472.81
2022-09-07T19:58:14.033Z,99482.63
2022-09-07T20:00:44.078Z,99463.47
2022-09-07T20:03:13.753Z,99464.53
2022-09-07T20:06:00.079Z,99452.84
2022-09-07T20:08:33.934Z,99460.88
2022-09-07T20:11:07.692Z,99458.66
2022-09-07T20:13:49.225Z,99456.66
2022-09-07T20:16:22.368Z,99451.91
2022-09-07T20:19:01.732Z,99442.75
2022-09-07T20:21:48.142Z,99447.53
2022-09-07T20:24:57.906Z,99428.47
2022-09-07T20:27:45.967Z,99433.63
2022-09-07T20:30:18.705Z,99433.03
2022-09-07T20:32:48.828Z,99430.91
2022-09-07T20:35:17.475Z,99434.19
2022-09-07T20:37:45.679Z,99431.00
2022-09-07T20:40:14.564Z,99422.34
2022-09-07T20:42:42.988Z,99422.16
2022-09-07T20:45:12.243Z,99427.44
2022-09-07T20:47:40.864Z,99431.81
2022-09-07T20:50:12.011Z,99420.50
2022-09-07T20:52:41.592Z,99415.09
2022-09-07T20:55:13.811Z,99414.28
2022-09-07T20:57:45.509Z,99409.75
2022-09-07T21:00:14.643Z,99413.03
2022-09-07T21:02:46.131Z,99406.88
2022-09-07T21:05:17.368Z,99413.00
2022-09-07T21:07:46.279Z,99414.59
2022-09-07T21:10:15.982Z,99414.09
2022-09-07T21:12:44.949Z,99422.78
2022-09-07T21:15:13.277Z,99416.19
2022-09-07T21:17:41.879Z,99415.28
2022-09-07T21:20:11.649Z,99414.38
2022-09-07T21:22:41.448Z,99409.75
2022-09-07T21:25:12.326Z,99403.06
2022-09-07T21:27:41.350Z,99413.31
2022-09-07T21:30:11.296Z,99415.72
2022-09-07T21:32:40.465Z,99413.84
2022-09-07T21:35:11.374Z,99419.81
2022-09-07T21:37:41.372Z,99413.97
2022-09-07T21:40:11.062Z,99407.25
2022-09-07T21:42:39.683Z,99419.19
2022-09-07T21:45:10.387Z,99426.34
2022-09-07T21:47:38.861Z,99439.94
2022-09-07T21:50:08.229Z,99429.88
2022-09-07T21:52:39.524Z,99434.28
2022-09-07T21:55:10.300Z,99439.25
2022-09-07T21:57:38.609Z,99435.16
2022-09-07T22:00:09.717Z,99435.50
2022-09-07T22:02:38.166Z,99428.91
2022-09-07T22:05:08.045Z,99434.25
2022-09-07T22:07:36.465Z,99437.75
2022-09-07T22:10:06.544Z,99433.56
2022-09-07T22:12:36.309Z,99432.88
2022-09-07T22:15:07.194Z,99422.34
2022-09-07T22:17:35.610Z,99430.47
2022-09-07T22:20:04.980Z,99423.16
2022-09-07T22:22:34.972Z,99418.41
2022-09-07T22:25:03.673Z,99414.13
2022-09-07T22:27:32.128Z,99409.84
2022-09-07T22:30:02.438Z,99412.97
2022-09-07T22:32:30.724Z,99404.78
2022-09-07T22:34:58.969Z,99409.03
2022-09-07T22:37:29.356Z,99420.03
2022-09-07T22:39:57.910Z,99412.25
2022-09-07T22:42:26.452Z,99410.69
2022-09-07T22:44:55.105Z,99397.31
2022-09-07T22:47:24.927Z,99405.38
2022-09-07T22:49:53.851Z,99391.84
2022-09-07T22:52:22.134Z,99386.59
2022-09-07T22:54:50.744Z,99380.16
2022-09-07T22:57:19.269Z,99375.94
2022-09-07T22:59:48.220Z,99373.97
2022-09-07T23:02:16.561Z,99371.66
2022-09-07T23:04:46.313Z,99365.94
2022-09-07T23:07:17.787Z,99366.53
2022-09-07T23:09:46.398Z,99368.69
2022-09-07T23:12:14.804Z,99368.97
2022-09-07T23:14:43.148Z,99356.81
2022-09-07T23:17:12.283Z,99354.44
2022-09-07T23:19:40.455Z,99350.25
2022-09-07T23:22:14.191Z,99348.34
2022-09-07T23:24:42.676Z,99348.88
2022-09-07T23:27:12.031Z,99340.72
2022-09-07T23:29:41.345Z,99325.78
2022-09-07T23:32:09.632Z,99321.38
2022-09-07T23:34:38.108Z,99322.31
2022-09-07T23:37:06.469Z,99311.91
2022-09-07T23:39:36.073Z,99306.91
2022-09-07T23:42:04.452Z,99299.25
2022-09-07T23:44:32.682Z,99305.78
2022-09-07T23:47:01.072Z,99302.44
2022-09-07T23:49:29.352Z,99297.66
2022-09-07T23:51:57.701Z,99291.19
2022-09-07T23:54:26.187Z,99287.94
2022-09-07T23:56:56.129Z,99290.03
2022-09-07T23:59:26.125Z,99283.00
